Time;durP1;ratioP1;P1;durP2;ratioP2;P2;SDS_P1;SDS_P2;PMS_P1;PMS_P2;Temp;Humidity;BMP_temperature;BMP_pressure;BME280_temperature;BME280_humidity;BME280_pressure;Samples;Min_cycle;Max_cycle;Signal;HPM_P1;HPM_P2
2021/12/20 00:01:12;;;;;;;24.83;5.67;;;;;;;1.91;100.00;101419.38;4991634;28;20235;-74
2021/12/20 00:03:38;;;;;;;24.00;4.80;;;;;;;1.83;100.00;101420.84;5007325;28;20206;-75
2021/12/20 00:06:04;;;;;;;28.83;5.13;;;;;;;1.85;100.00;101419.19;4999280;28;20285;-75
2021/12/20 00:08:31;;;;;;;33.17;7.07;;;;;;;1.84;100.00;101414.84;4993200;28;20747;-75
2021/12/20 00:10:58;;;;;;;29.97;5.57;;;;;;;1.84;100.00;101402.84;5000397;28;20277;-75
2021/12/20 00:13:25;;;;;;;37.20;5.70;;;;;;;1.83;100.00;101405.41;4996478;28;20784;-75
2021/12/20 00:15:51;;;;;;;24.87;5.90;;;;;;;1.83;100.00;101405.41;4998132;28;20203;-75
2021/12/20 00:18:17;;;;;;;35.27;8.20;;;;;;;1.79;100.00;101404.41;5009477;28;20245;-75
2021/12/20 00:20:44;;;;;;;29.20;5.63;;;;;;;1.75;100.00;101408.59;5016848;23;20282;-78
2021/12/20 00:23:10;;;;;;;28.83;5.17;;;;;;;1.73;100.00;101406.78;4992799;28;20613;-78
2021/12/20 00:25:36;;;;;;;47.23;5.97;;;;;;;1.73;100.00;101401.66;4994262;28;20679;-78
2021/12/20 00:28:05;;;;;;;34.73;6.73;;;;;;;1.65;100.00;101398.81;4995464;28;20199;-78
2021/12/20 00:30:32;;;;;;;43.57;6.60;;;;;;;1.57;100.00;101395.13;4995006;28;20219;-76
2021/12/20 00:32:59;;;;;;;31.70;5.03;;;;;;;1.55;100.00;101399.34;5004391;28;20223;-78
2021/12/20 00:35:25;;;;;;;30.67;5.13;;;;;;;1.56;100.00;101394.22;5006675;28;20236;-78
2021/12/20 00:40:37;;;;;;;33.57;6.27;;;;;;;1.50;100.00;101390.59;4995904;28;20230;-78
2021/12/20 00:43:06;;;;;;;33.37;5.77;;;;;;;1.51;100.00;101388.06;4994036;28;20200;-77
2021/12/20 00:45:35;;;;;;;35.40;5.87;;;;;;;1.52;100.00;101387.22;4994468;28;20681;-78
2021/12/20 00:48:03;;;;;;;47.60;6.73;;;;;;;1.46;100.00;101381.03;4994406;28;20200;-78
2021/12/20 00:50:30;;;;;;;29.87;5.27;;;;;;;1.45;100.00;101382.72;4994678;28;20235;-78
2021/12/20 00:52:56;;;;;;;35.70;5.90;;;;;;;1.38;100.00;101394.47;4986946;28;20227;-78
2021/12/20 00:55:24;;;;;;;50.00;6.93;;;;;;;1.41;100.00;101390.28;4994878;28;20207;-78
2021/12/20 00:57:52;;;;;;;54.00;6.27;;;;;;;1.37;100.00;101392.75;4994872;28;20262;-78
2021/12/20 01:00:23;;;;;;;30.97;5.87;;;;;;;1.38;100.00;101396.19;4995325;28;20242;-78
2021/12/20 01:02:51;;;;;;;34.40;6.27;;;;;;;1.46;100.00;101392.19;4994885;28;20635;-79
2021/12/20 01:05:17;;;;;;;27.83;5.23;;;;;;;1.43;100.00;101392.09;4994836;28;20246;-78
2021/12/20 01:07:44;;;;;;;40.67;6.00;;;;;;;1.41;100.00;101397.97;4995082;28;20199;-78
2021/12/20 01:10:12;;;;;;;44.13;5.73;;;;;;;1.46;100.00;101399.91;4994992;28;20223;-77
2021/12/20 01:12:45;;;;;;;35.43;6.30;;;;;;;1.46;100.00;101411.88;4995061;28;20278;-77
2021/12/20 01:15:14;;;;;;;36.33;6.37;;;;;;;1.51;100.00;101423.22;4995206;28;20227;-79
2021/12/20 01:17:42;;;;;;;41.37;6.83;;;;;;;1.47;100.00;101439.38;4995265;28;20207;-79
2021/12/20 01:20:10;;;;;;;25.47;5.80;;;;;;;1.39;100.00;101444.25;4994738;28;20227;-79
2021/12/20 01:22:36;;;;;;;27.27;4.80;;;;;;;1.37;100.00;101449.34;4994928;28;20196;-78
2021/12/20 01:25:03;;;;;;;29.77;5.27;;;;;;;1.31;100.00;101480.00;4995198;28;20196;-77
2021/12/20 01:27:29;;;;;;;21.10;4.33;;;;;;;1.25;100.00;101496.88;4993923;28;20204;-76
2021/12/20 01:29:56;;;;;;;28.97;4.67;;;;;;;1.22;100.00;101504.50;4995211;28;20579;-78
2021/12/20 01:32:23;;;;;;;32.30;5.03;;;;;;;1.21;100.00;101513.94;4994552;28;20238;-79
2021/12/20 01:34:50;;;;;;;21.30;4.73;;;;;;;1.20;100.00;101501.88;4994897;28;20206;-79
2021/12/20 01:37:16;;;;;;;28.43;4.63;;;;;;;1.11;100.00;101501.53;4995280;28;20258;-79
2021/12/20 01:39:43;;;;;;;23.60;4.87;;;;;;;1.19;100.00;101506.16;4994831;28;20199;-79
2021/12/20 01:42:10;;;;;;;24.33;6.13;;;;;;;1.20;100.00;101512.16;4993568;28;20733;-78
2021/12/20 01:44:37;;;;;;;25.47;5.13;;;;;;;1.19;100.00;101515.56;4993965;28;20204;-77
2021/12/20 01:47:04;;;;;;;31.03;5.13;;;;;;;1.14;100.00;101519.66;4993720;28;20199;-79
2021/12/20 01:49:39;;;;;;;42.67;5.83;;;;;;;1.22;100.00;101527.66;4993293;28;20211;-78
2021/12/20 01:52:14;;;;;;;25.30;5.20;;;;;;;1.20;100.00;101543.03;4993518;28;20215;-80
2021/12/20 01:54:40;;;;;;;31.77;6.43;;;;;;;1.25;100.00;101551.78;4993450;28;20261;-78
2021/12/20 01:57:07;;;;;;;23.03;5.40;;;;;;;1.14;100.00;101578.78;4993425;28;20745;-76
2021/12/20 01:59:33;;;;;;;20.67;5.37;;;;;;;1.22;100.00;101587.66;4993635;28;20649;-78
2021/12/20 02:02:00;;;;;;;34.77;4.90;;;;;;;1.16;100.00;101603.75;4993530;28;20924;-79
2021/12/20 02:04:27;;;;;;;13.33;4.47;;;;;;;1.04;100.00;101594.69;4994737;28;20211;-78
2021/12/20 02:06:54;;;;;;;27.87;4.70;;;;;;;1.08;100.00;101583.72;4993170;28;20200;-79
2021/12/20 02:09:22;;;;;;;17.80;4.53;;;;;;;1.02;100.00;101575.75;4993945;28;20218;-78
2021/12/20 02:11:51;;;;;;;28.67;4.73;;;;;;;0.89;100.00;101565.03;4993653;28;20216;-78
2021/12/20 02:14:19;;;;;;;19.33;4.10;;;;;;;0.83;100.00;101569.03;4993397;28;20250;-78
2021/12/20 02:16:46;;;;;;;28.07;4.60;;;;;;;0.84;100.00;101542.53;4991270;28;20196;-78
2021/12/20 02:19:15;;;;;;;18.70;4.93;;;;;;;0.84;100.00;101529.66;4992758;28;20743;-79
2021/12/20 02:21:45;;;;;;;21.87;4.83;;;;;;;0.79;100.00;101514.06;4992497;28;20231;-79
2021/12/20 02:24:12;;;;;;;26.30;4.33;;;;;;;0.75;100.00;101497.66;4993653;28;20204;-78
2021/12/20 02:26:39;;;;;;;23.87;5.00;;;;;;;0.72;100.00;101486.38;4991063;28;20196;-76
2021/12/20 02:29:08;;;;;;;27.43;4.47;;;;;;;0.61;100.00;101477.38;4991990;28;20206;-74
2021/12/20 02:37:26;;;;;;;19.17;5.40;;;;;;;0.56;100.00;101462.66;4992244;28;20583;-79
2021/12/20 02:39:53;;;;;;;18.67;4.20;;;;;;;0.50;100.00;101475.28;4993170;28;20203;-79
2021/12/20 02:42:25;;;;;;;19.07;4.00;;;;;;;0.41;100.00;101487.75;4993534;28;20211;-79
2021/12/20 02:45:06;;;;;;;20.80;5.27;;;;;;;0.44;100.00;101489.56;4992439;28;20206;-80
2021/12/20 02:47:32;;;;;;;18.87;4.27;;;;;;;0.47;100.00;101492.25;4994486;28;20203;-77
2021/12/20 02:49:59;;;;;;;24.40;4.80;;;;;;;0.44;100.00;101489.56;4994582;28;20559;-79
2021/12/20 02:52:27;;;;;;;18.07;5.03;;;;;;;0.44;100.00;101480.19;4993411;28;20744;-77
2021/12/20 02:54:53;;;;;;;24.13;5.47;;;;;;;0.45;100.00;101478.47;4991975;28;20224;-77
2021/12/20 02:57:20;;;;;;;19.87;4.83;;;;;;;0.45;100.00;101463.94;4992378;28;20199;-77
2021/12/20 02:59:47;;;;;;;22.13;5.30;;;;;;;0.46;100.00;101460.56;4991731;28;20210;-79
2021/12/20 03:02:13;;;;;;;29.83;6.30;;;;;;;0.41;100.00;101445.78;4991642;28;20204;-79
2021/12/20 03:04:40;;;;;;;46.93;5.73;;;;;;;0.44;100.00;101441.66;4991707;28;20740;-76
2021/12/20 03:07:10;;;;;;;17.23;4.33;;;;;;;0.33;100.00;101455.78;4991991;28;20198;-77
2021/12/20 03:09:42;;;;;;;19.53;4.93;;;;;;;0.48;100.00;101445.22;4992236;28;20203;-77
2021/12/20 03:12:12;;;;;;;20.40;4.20;;;;;;;0.44;100.00;101444.22;4991076;28;20913;-77
2021/12/20 03:14:41;;;;;;;15.60;4.27;;;;;;;0.49;100.00;101446.97;4991756;28;20219;-78
2021/12/20 03:17:09;;;;;;;36.63;5.17;;;;;;;0.51;100.00;101448.75;4990412;28;20231;-77
2021/12/20 03:19:35;;;;;;;23.83;4.40;;;;;;;0.48;100.00;101446.09;4989321;28;20207;-77
2021/12/20 03:22:03;;;;;;;21.13;5.23;;;;;;;0.45;100.00;101450.22;4989250;28;20238;-78
2021/12/20 03:24:29;;;;;;;19.93;4.57;;;;;;;0.50;100.00;101447.03;4989473;28;20619;-77
2021/12/20 03:26:57;;;;;;;29.57;5.83;;;;;;;0.50;100.00;101443.59;4990992;28;20207;-77
2021/12/20 03:29:24;;;;;;;20.10;4.37;;;;;;;0.44;100.00;101454.50;4991162;28;20200;-78
2021/12/20 03:31:51;;;;;;;25.27;5.37;;;;;;;0.41;100.00;101450.94;4991777;28;20258;-78
2021/12/20 03:34:18;;;;;;;34.10;4.93;;;;;;;0.36;100.00;101455.91;4992179;28;20274;-77
2021/12/20 03:36:45;;;;;;;31.30;6.10;;;;;;;0.35;100.00;101447.28;4991803;28;20257;-77
2021/12/20 03:39:12;;;;;;;28.70;5.43;;;;;;;0.22;100.00;101460.50;4991693;28;20677;-77
2021/12/20 03:41:39;;;;;;;25.57;5.83;;;;;;;0.25;100.00;101459.72;4991784;28;20269;-79
2021/12/20 03:44:07;;;;;;;13.13;4.33;;;;;;;0.28;100.00;101458.16;4992016;28;20209;-78
2021/12/20 03:46:34;;;;;;;16.20;5.07;;;;;;;0.30;100.00;101451.41;4992174;28;20203;-77
2021/12/20 03:49:01;;;;;;;31.50;6.33;;;;;;;0.33;100.00;101450.63;4991182;28;20291;-78
2021/12/20 03:51:27;;;;;;;18.80;5.77;;;;;;;0.35;100.00;101439.59;4991391;28;20224;-78
2021/12/20 03:53:53;;;;;;;33.43;5.37;;;;;;;0.44;100.00;101444.22;4991475;28;20646;-79
2021/12/20 03:56:20;;;;;;;23.00;5.07;;;;;;;0.49;100.00;101452.09;4991728;28;20651;-78
2021/12/20 03:58:46;;;;;;;25.23;5.00;;;;;;;0.47;100.00;101457.16;4991754;28;20203;-78
2021/12/20 04:01:14;;;;;;;28.37;4.87;;;;;;;0.45;100.00;101471.66;4992100;28;20269;-77
2021/12/20 04:03:41;;;;;;;20.53;5.50;;;;;;;0.50;100.00;101477.00;4991706;28;20202;-79
2021/12/20 04:06:10;;;;;;;21.00;5.10;;;;;;;0.55;100.00;101491.72;4992220;28;20202;-77
2021/12/20 04:08:37;;;;;;;21.37;5.00;;;;;;;0.47;100.00;101495.69;4983816;28;20196;-78
2021/12/20 04:11:04;;;;;;;29.60;5.90;;;;;;;0.44;100.00;101500.72;4991711;28;20215;-77
2021/12/20 04:13:31;;;;;;;24.33;4.23;;;;;;;0.45;100.00;101504.16;4991328;28;20199;-77
2021/12/20 04:15:58;;;;;;;26.03;4.73;;;;;;;0.34;100.00;101517.47;4992065;28;20204;-79
2021/12/20 04:18:27;;;;;;;21.57;4.23;;;;;;;0.30;100.00;101530.13;4991242;28;20208;-77
2021/12/20 04:20:53;;;;;;;15.27;3.90;;;;;;;0.28;100.00;101539.44;4991528;28;20227;-77
2021/12/20 04:23:20;;;;;;;16.03;4.10;;;;;;;0.17;100.00;101546.72;4991401;28;20207;-79
2021/12/20 04:25:47;;;;;;;17.43;4.10;;;;;;;0.22;100.00;101534.94;4991366;28;20250;-79
2021/12/20 04:28:13;;;;;;;27.20;4.27;;;;;;;0.16;100.00;101537.28;4992088;28;20204;-79
2021/12/20 04:30:40;;;;;;;18.77;4.63;;;;;;;0.13;100.00;101532.88;4991331;28;20228;-80
2021/12/20 04:33:06;;;;;;;19.23;3.77;;;;;;;0.21;100.00;101538.31;4991469;28;20203;-78
2021/12/20 04:35:34;;;;;;;21.80;4.20;;;;;;;0.21;100.00;101551.16;4991419;28;20574;-78
2021/12/20 04:38:02;;;;;;;14.33;4.07;;;;;;;0.22;100.00;101552.03;4991878;28;20200;-77
2021/12/20 04:40:28;;;;;;;16.07;5.53;;;;;;;0.25;100.00;101568.44;4991153;28;20238;-78
2021/12/20 04:42:57;;;;;;;16.80;3.87;;;;;;;0.18;100.00;101569.88;4983535;28;20234;-78
2021/12/20 04:45:25;;;;;;;13.20;3.80;;;;;;;0.25;100.00;101571.00;4991527;28;20265;-78
2021/12/20 04:47:52;;;;;;;19.33;4.63;;;;;;;0.14;100.00;101587.66;4991402;28;20241;-79
2021/12/20 04:50:19;;;;;;;16.43;3.50;;;;;;;0.09;100.00;101591.72;4990951;28;20222;-76
2021/12/20 04:52:46;;;;;;;16.07;3.33;;;;;;;0.04;100.00;101586.41;4990842;28;20207;-77
2021/12/20 04:55:14;;;;;;;13.30;3.93;;;;;;;0.05;100.00;101589.84;4991108;28;20223;-78
2021/12/20 04:57:42;;;;;;;21.50;3.70;;;;;;;0.05;100.00;101598.41;4991325;28;20207;-79
2021/12/20 05:00:11;;;;;;;19.37;3.70;;;;;;;0.10;100.00;101596.94;4991231;28;20228;-78
2021/12/20 05:02:38;;;;;;;16.37;3.23;;;;;;;0.02;100.00;101594.84;4993627;28;20230;-78
2021/12/20 05:05:05;;;;;;;18.30;3.73;;;;;;;0.01;100.00;101591.41;4986801;28;20242;-77
2021/12/20 05:07:31;;;;;;;15.27;3.30;;;;;;;0.11;100.00;101601.25;4994434;28;20203;-78
2021/12/20 05:10:01;;;;;;;17.77;3.53;;;;;;;0.11;100.00;101606.38;4994528;28;20207;-78
2021/12/20 05:12:28;;;;;;;14.00;3.63;;;;;;;0.05;100.00;101623.22;4994479;28;20302;-78
2021/12/20 05:14:55;;;;;;;12.67;3.17;;;;;;;-0.08;100.00;101626.91;4994354;28;20280;-77
2021/12/20 05:17:21;;;;;;;11.80;3.40;;;;;;;-0.13;100.00;101631.00;4994424;28;20273;-78
2021/12/20 05:19:47;;;;;;;17.10;3.33;;;;;;;-0.19;100.00;101620.47;4996990;28;20266;-78
2021/12/20 05:22:14;;;;;;;11.93;3.90;;;;;;;-0.20;100.00;101606.75;5002436;28;20337;-78
2021/12/20 05:24:41;;;;;;;18.20;3.83;;;;;;;-0.15;100.00;101606.97;5009764;28;20202;-77
2021/12/20 05:27:09;;;;;;;13.43;3.60;;;;;;;-0.17;100.00;101604.31;5007984;28;20234;-77
2021/12/20 05:29:36;;;;;;;17.13;3.40;;;;;;;-0.12;100.00;101618.25;4994897;28;20266;-78
2021/12/20 05:32:05;;;;;;;14.23;3.90;;;;;;;-0.06;100.00;101627.88;4993757;28;20254;-77
2021/12/20 05:34:31;;;;;;;17.80;4.50;;;;;;;-0.16;100.00;101635.97;4994089;28;20227;-77
2021/12/20 05:36:58;;;;;;;9.70;3.23;;;;;;;-0.21;100.00;101635.78;4993870;28;20264;-78
2021/12/20 05:39:24;;;;;;;14.90;3.47;;;;;;;-0.28;100.00;101639.78;4994343;28;20243;-77
2021/12/20 05:41:50;;;;;;;13.23;3.60;;;;;;;-0.36;100.00;101641.09;4993283;28;20791;-77
2021/12/20 05:44:18;;;;;;;19.23;3.80;;;;;;;-0.41;100.00;101643.47;4993879;28;20207;-78
2021/12/20 05:46:45;;;;;;;7.77;3.30;;;;;;;-0.36;100.00;101643.66;4993626;28;20203;-78
2021/12/20 05:49:11;;;;;;;16.73;4.37;;;;;;;-0.44;100.00;101643.34;4993152;28;20672;-78
2021/12/20 05:51:38;;;;;;;14.57;4.30;;;;;;;-0.46;100.00;101644.94;4993861;28;20604;-78
2021/12/20 05:54:04;;;;;;;12.50;4.20;;;;;;;-0.53;100.00;101645.47;4994261;28;20227;-79
2021/12/20 05:56:31;;;;;;;11.13;4.67;;;;;;;-0.59;100.00;101642.63;4994819;28;20203;-76
2021/12/20 05:58:57;;;;;;;14.57;4.67;;;;;;;-0.57;100.00;101635.91;4994566;28;20250;-77
2021/12/20 06:01:25;;;;;;;13.27;4.17;;;;;;;-0.67;100.00;101646.53;4993417;28;20232;-78
2021/12/20 06:03:51;;;;;;;15.13;4.10;;;;;;;-0.77;100.00;101642.66;4993707;28;20206;-76
2021/12/20 06:06:18;;;;;;;13.67;3.70;;;;;;;-0.78;100.00;101645.16;4993831;28;20690;-77
2021/12/20 06:08:44;;;;;;;16.37;4.07;;;;;;;-0.78;100.00;101640.03;4994086;28;20262;-78
2021/12/20 06:11:11;;;;;;;15.53;3.77;;;;;;;-0.86;100.00;101642.22;4994151;28;20280;-77
2021/12/20 06:13:37;;;;;;;19.23;6.20;;;;;;;-0.82;100.00;101641.56;4993028;28;20211;-77
2021/12/20 06:16:04;;;;;;;11.90;4.40;;;;;;;-0.78;100.00;101647.72;4993676;28;20652;-78
2021/12/20 06:18:32;;;;;;;10.80;4.07;;;;;;;-0.82;100.00;101647.56;4994013;28;20204;-77
2021/12/20 06:20:58;;;;;;;12.90;4.00;;;;;;;-0.79;100.00;101646.84;5012424;23;20944;-76
2021/12/20 06:23:24;;;;;;;22.53;5.10;;;;;;;-0.83;100.00;101647.50;5006435;28;20215;-77
2021/12/20 06:25:51;;;;;;;15.27;3.57;;;;;;;-0.87;100.00;101645.63;4996658;28;20208;-79
2021/12/20 06:28:17;;;;;;;11.30;3.93;;;;;;;-0.88;100.00;101648.97;4997079;28;20254;-79
2021/12/20 06:30:44;;;;;;;5.17;3.00;;;;;;;-0.86;100.00;101653.34;4998096;28;20207;-79
2021/12/20 06:33:10;;;;;;;12.10;3.53;;;;;;;-0.84;100.00;101659.44;5015626;28;20211;-79
2021/12/20 06:35:38;;;;;;;11.63;3.43;;;;;;;-0.88;100.00;101656.66;5015995;28;20287;-78
2021/12/20 06:38:06;;;;;;;8.33;3.63;;;;;;;-0.90;100.00;101650.59;5015786;28;20206;-79
2021/12/20 06:40:34;;;;;;;13.33;3.47;;;;;;;-0.93;100.00;101656.44;5015511;28;20210;-78
2021/12/20 06:43:00;;;;;;;11.90;4.10;;;;;;;-1.01;100.00;101658.66;5014498;28;20724;-78
2021/12/20 06:45:29;;;;;;;15.77;3.90;;;;;;;-0.92;100.00;101654.75;5014955;28;20585;-79
2021/12/20 06:47:56;;;;;;;8.27;3.60;;;;;;;-0.90;100.00;101656.59;5014866;28;20202;-78
2021/12/20 06:50:22;;;;;;;12.33;3.90;;;;;;;-0.93;100.00;101668.38;5024224;28;20679;-78
2021/12/20 06:52:50;;;;;;;6.87;2.97;;;;;;;-0.90;100.00;101668.53;5033943;28;20229;-78
2021/12/20 06:55:16;;;;;;;10.83;3.33;;;;;;;-0.91;100.00;101672.78;5034977;28;20225;-78
2021/12/20 06:57:43;;;;;;;7.83;2.80;;;;;;;-0.94;100.00;101675.19;5034160;28;20746;-78
2021/12/20 07:00:10;;;;;;;5.77;2.90;;;;;;;-0.91;100.00;101675.34;5034636;28;20206;-78
2021/12/20 07:02:36;;;;;;;6.67;2.97;;;;;;;-0.88;100.00;101683.16;5034103;28;20237;-78
2021/12/20 07:05:03;;;;;;;6.17;2.50;;;;;;;-0.82;100.00;101703.09;5034182;28;20252;-78
2021/12/20 07:07:30;;;;;;;8.27;3.07;;;;;;;-0.82;100.00;101721.91;5034356;28;20232;-78
2021/12/20 07:09:58;;;;;;;8.10;2.50;;;;;;;-0.80;100.00;101734.78;5034066;28;20270;-77
2021/12/20 07:12:24;;;;;;;8.30;2.80;;;;;;;-0.81;100.00;101762.13;5033395;28;20226;-78
2021/12/20 07:14:51;;;;;;;11.83;3.10;;;;;;;-0.69;98.92;101776.34;5033414;28;20227;-78
2021/12/20 07:17:18;;;;;;;8.63;3.03;;;;;;;-0.82;99.15;101780.84;5034028;28;20206;-78
2021/12/20 07:19:45;;;;;;;7.57;3.07;;;;;;;-0.86;99.26;101789.19;5034423;28;20214;-78
2021/12/20 07:22:11;;;;;;;14.37;3.70;;;;;;;-0.82;99.15;101800.50;5031860;28;20288;-77
2021/12/20 07:24:38;;;;;;;7.43;2.70;;;;;;;-0.88;99.22;101797.63;5031232;28;20256;-78
2021/12/20 07:27:07;;;;;;;8.13;2.90;;;;;;;-0.93;99.36;101792.28;5032339;28;20248;-78
2021/12/20 07:29:33;;;;;;;7.73;3.97;;;;;;;-1.00;99.85;101785.97;5031884;28;20205;-78
2021/12/20 07:32:00;;;;;;;7.03;2.53;;;;;;;-0.82;98.54;101791.09;5031599;28;20226;-77
2021/12/20 07:34:26;;;;;;;9.10;3.20;;;;;;;-0.75;98.30;101819.59;5031947;28;20213;-77
2021/12/20 07:36:53;;;;;;;11.13;3.90;;;;;;;-0.75;98.03;101832.44;5031290;28;20206;-77
2021/12/20 07:39:19;;;;;;;4.13;2.00;;;;;;;-0.70;97.05;101867.75;5024410;28;20198;-78
2021/12/20 07:41:48;;;;;;;7.80;2.83;;;;;;;-0.64;96.28;101893.69;5021952;28;20227;-78
2021/12/20 07:44:17;;;;;;;8.87;2.33;;;;;;;-0.69;96.31;101907.97;5019132;28;20202;-78
2021/12/20 07:46:43;;;;;;;7.97;3.13;;;;;;;-0.58;95.17;101934.16;5019677;28;20199;-78
2021/12/20 07:49:09;;;;;;;13.60;2.37;;;;;;;-0.52;94.98;101954.97;5023732;28;20260;-78
2021/12/20 07:51:36;;;;;;;5.93;3.83;;;;;;;-0.50;94.95;101948.25;5024225;28;20227;-78
2021/12/20 07:54:02;;;;;;;5.60;2.27;;;;;;;-0.44;94.20;101975.88;5030556;28;20262;-78
2021/12/20 07:56:29;;;;;;;5.77;2.70;;;;;;;-0.53;94.48;101989.13;5017760;28;20647;-79
2021/12/20 07:58:55;;;;;;;5.33;2.43;;;;;;;-0.55;94.24;101990.75;5032137;28;20631;-78
2021/12/20 08:01:23;;;;;;;6.73;3.73;;;;;;;-0.64;93.82;101993.69;5028051;28;20253;-78
2021/12/20 08:03:50;;;;;;;7.10;2.80;;;;;;;-0.68;94.39;101984.09;5020619;28;20209;-78
2021/12/20 08:06:16;;;;;;;5.00;2.80;;;;;;;-0.63;93.72;101984.34;5024470;28;20191;-78
2021/12/20 08:08:42;;;;;;;6.63;2.10;;;;;;;-0.65;94.28;101991.94;5021094;28;20198;-78
2021/12/20 08:11:09;;;;;;;4.73;2.00;;;;;;;-0.58;94.77;101977.75;5024066;28;20218;-78
2021/12/20 08:13:44;;;;;;;4.33;1.90;;;;;;;-0.65;93.80;101984.25;5022180;28;20195;-78
2021/12/20 08:16:11;;;;;;;7.30;3.00;;;;;;;-0.60;93.37;102011.00;5025994;28;20711;-78
2021/12/20 08:18:39;;;;;;;6.50;2.60;;;;;;;-0.64;93.47;102010.78;5025180;28;20199;-79
2021/12/20 08:21:05;;;;;;;3.73;1.73;;;;;;;-0.72;93.51;102004.38;5027866;28;20238;-78
2021/12/20 08:23:32;;;;;;;6.03;2.30;;;;;;;-0.73;93.48;101998.38;5026072;28;20613;-78
2021/12/20 08:25:58;;;;;;;7.00;2.37;;;;;;;-0.74;93.29;101995.72;5023543;28;20687;-78
2021/12/20 08:28:24;;;;;;;7.87;2.10;;;;;;;-0.67;92.80;102020.88;5024226;28;20207;-78
2021/12/20 08:30:51;;;;;;;5.23;1.73;;;;;;;-0.66;92.99;102033.75;5024086;28;20256;-78
2021/12/20 08:33:18;;;;;;;4.30;2.10;;;;;;;-0.50;95.02;101993.53;5028015;28;20202;-79
2021/12/20 08:35:49;;;;;;;5.83;2.00;;;;;;;-0.23;94.66;101971.84;5029875;28;20279;-79
2021/12/20 08:38:15;;;;;;;5.57;2.10;;;;;;;0.12;96.63;101956.38;5035612;28;20629;-79
2021/12/20 08:40:42;;;;;;;4.77;2.67;;;;;;;0.21;94.25;101943.13;5035624;28;20232;-79
2021/12/20 08:43:08;;;;;;;3.60;2.30;;;;;;;0.04;91.53;102045.91;5031147;28;20198;-79
2021/12/20 08:45:35;;;;;;;7.40;1.60;;;;;;;-0.07;89.75;102088.09;5029190;28;20249;-78
2021/12/20 08:48:01;;;;;;;4.90;1.80;;;;;;;-0.22;90.44;102119.88;5031239;28;20206;-77
2021/12/20 08:50:27;;;;;;;4.33;2.00;;;;;;;-0.39;90.18;102125.81;5026423;28;20210;-79
2021/12/20 08:52:56;;;;;;;9.63;1.97;;;;;;;-0.54;90.47;102117.28;5033708;28;20214;-78
2021/12/20 08:55:23;;;;;;;6.70;1.83;;;;;;;-0.58;90.57;102131.63;5023454;28;20219;-78
2021/12/20 08:57:50;;;;;;;5.33;2.33;;;;;;;-0.60;89.68;102136.66;5024986;28;20202;-78
2021/12/20 09:00:20;;;;;;;6.30;1.80;;;;;;;-0.56;89.76;102141.97;5025039;28;20252;-78
2021/12/20 09:02:47;;;;;;;4.00;2.30;;;;;;;-0.65;90.00;102137.25;5026560;28;21048;-79
2021/12/20 09:05:14;;;;;;;4.33;2.07;;;;;;;-0.70;90.95;102125.84;5023445;28;20199;-79
2021/12/20 09:07:41;;;;;;;2.93;2.40;;;;;;;-0.62;90.46;102138.25;5031530;28;20299;-78
2021/12/20 09:10:12;;;;;;;5.87;2.60;;;;;;;-0.55;89.45;102159.13;5030910;28;20615;-79
2021/12/20 09:12:38;;;;;;;4.43;2.60;;;;;;;-0.57;90.18;102155.63;5027018;28;20213;-79
2021/12/20 09:15:06;;;;;;;8.60;2.60;;;;;;;-0.55;89.40;102177.97;5028742;28;20252;-78
2021/12/20 09:17:33;;;;;;;5.63;2.67;;;;;;;-0.51;89.81;102186.72;5029716;28;20206;-78
2021/12/20 09:20:00;;;;;;;3.57;2.17;;;;;;;-0.54;90.03;102166.88;5030411;28;20251;-79
2021/12/20 09:22:29;;;;;;;3.23;2.23;;;;;;;-0.64;90.43;102146.69;5032295;28;20742;-78
2021/12/20 09:24:55;;;;;;;3.50;2.47;;;;;;;-0.60;90.21;102157.19;5026461;28;20198;-78
2021/12/20 09:27:23;;;;;;;5.37;2.37;;;;;;;-0.60;90.39;102158.88;5014794;28;20282;-77
2021/12/20 09:29:50;;;;;;;4.73;2.63;;;;;;;-0.64;90.75;102146.69;5027683;28;20199;-77
2021/12/20 09:32:17;;;;;;;4.27;2.40;;;;;;;-0.59;90.16;102145.25;5034108;28;20278;-77
2021/12/20 09:34:44;;;;;;;4.90;2.50;;;;;;;-0.58;90.83;102136.75;5035113;28;20206;-78
2021/12/20 09:37:10;;;;;;;6.63;2.60;;;;;;;-0.61;91.25;102118.66;5027501;28;20285;-78
2021/12/20 09:39:39;;;;;;;5.43;3.53;;;;;;;-0.59;90.36;102127.31;5024333;28;20618;-78
2021/12/20 09:42:06;;;;;;;5.20;2.90;;;;;;;-0.55;90.00;102138.63;5021301;28;20239;-78
2021/12/20 09:44:34;;;;;;;5.63;3.70;;;;;;;-0.53;90.65;102135.31;5030900;28;20212;-78
2021/12/20 09:47:03;;;;;;;9.60;2.83;;;;;;;-0.54;91.39;102128.41;5019531;28;20202;-78
2021/12/20 09:49:31;;;;;;;7.13;2.50;;;;;;;-0.55;91.80;102107.84;5026281;28;20737;-78
2021/12/20 09:51:58;;;;;;;7.37;4.17;;;;;;;-0.51;91.36;102108.09;5026602;28;20226;-77
2021/12/20 09:54:26;;;;;;;5.60;3.50;;;;;;;-0.39;90.42;102122.38;5034020;28;20209;-78
2021/12/20 09:56:54;;;;;;;4.43;2.87;;;;;;;-0.34;90.38;102119.22;5028918;28;20217;-78
2021/12/20 09:59:22;;;;;;;5.00;3.40;;;;;;;-0.32;90.97;102120.19;5035223;28;20204;-78
2021/12/20 10:01:51;;;;;;;4.20;2.70;;;;;;;-0.29;91.72;102111.78;5022565;28;20219;-78
2021/12/20 10:04:17;;;;;;;7.70;3.93;;;;;;;-0.31;91.92;102095.44;5014465;28;20198;-78
2021/12/20 10:06:44;;;;;;;5.67;3.70;;;;;;;-0.28;91.87;102087.88;5022156;28;20191;-78
2021/12/20 10:09:14;;;;;;;6.03;3.10;;;;;;;-0.24;91.94;102087.22;5028515;28;20268;-78
2021/12/20 10:11:40;;;;;;;5.27;3.87;;;;;;;-0.25;92.51;102075.22;5016284;28;20242;-77
2021/12/20 10:14:09;;;;;;;7.73;4.07;;;;;;;-0.21;92.05;102072.00;5023533;28;20202;-78
2021/12/20 10:16:37;;;;;;;5.33;3.73;;;;;;;-0.25;92.59;102050.44;5031057;28;20221;-78
2021/12/20 10:19:09;;;;;;;7.27;4.03;;;;;;;-0.15;92.46;102056.91;5024177;28;20202;-78
2021/12/20 10:21:38;;;;;;;4.30;3.90;;;;;;;-0.13;93.28;102052.75;5031835;28;20272;-77
2021/12/20 10:24:05;;;;;;;11.27;4.53;;;;;;;-0.13;93.31;102036.47;5029188;28;20237;-78
2021/12/20 10:26:39;;;;;;;7.07;4.90;;;;;;;-0.11;93.15;102024.59;5023673;28;20201;-78
2021/12/20 10:29:17;;;;;;;9.80;5.13;;;;;;;-0.06;93.81;102034.28;5025825;28;20198;-77
2021/12/20 10:31:44;;;;;;;5.77;4.80;;;;;;;-0.05;93.62;102017.19;5025068;28;20791;-78
2021/12/20 10:34:13;;;;;;;8.03;5.43;;;;;;;-0.01;94.38;102011.41;5028873;28;20338;-78
2021/12/20 10:36:50;;;;;;;12.97;5.77;;;;;;;0.03;94.83;101999.59;5031522;28;20277;-78
2021/12/20 10:39:17;;;;;;;9.00;5.23;;;;;;;0.04;94.95;101999.69;5026345;28;20186;-78
2021/12/20 10:41:50;;;;;;;12.10;5.40;;;;;;;0.10;95.09;101989.72;5024433;28;20225;-78
2021/12/20 10:44:18;;;;;;;7.57;5.57;;;;;;;0.14;95.12;101983.03;5027083;28;20821;-78
2021/12/20 10:46:47;;;;;;;9.00;5.37;;;;;;;0.22;95.52;101985.97;5023576;28;20195;-78
2021/12/20 10:49:15;;;;;;;7.13;4.90;;;;;;;0.25;95.48;101979.28;5032762;28;20195;-78
2021/12/20 10:51:44;;;;;;;6.77;4.83;;;;;;;0.31;94.72;101986.41;5032413;28;20233;-78
2021/12/20 10:54:15;;;;;;;6.20;4.90;;;;;;;0.32;94.83;101973.66;5033563;28;20194;-78
2021/12/20 10:56:50;;;;;;;46.97;20.63;;;;;;;0.36;95.10;101973.00;5024857;28;20222;-78
2021/12/20 10:59:19;;;;;;;19.63;9.90;;;;;;;0.41;96.00;101954.34;5025584;28;20190;-78
2021/12/20 11:04:37;;;;;;;7.93;7.20;;;;;;;0.63;94.07;101981.91;5025637;28;20206;-78
2021/12/20 11:09:47;;;;;;;5.33;3.57;;;;;;;0.79;92.73;102054.66;5032716;28;20217;-78
2021/12/20 11:12:17;;;;;;;4.13;3.40;;;;;;;0.93;91.32;102101.59;5021622;28;20273;-78
2021/12/20 11:14:45;;;;;;;6.83;2.87;;;;;;;1.07;89.63;102142.47;5030363;28;20241;-78
2021/12/20 11:17:14;;;;;;;6.43;2.87;;;;;;;1.13;88.76;102163.34;5022361;28;20219;-78
2021/12/20 11:19:43;;;;;;;7.23;3.20;;;;;;;1.14;87.68;102193.41;5025255;28;20232;-78
2021/12/20 11:22:12;;;;;;;5.83;2.67;;;;;;;1.18;87.55;102211.63;5020167;28;20230;-78
2021/12/20 11:24:42;;;;;;;7.70;2.97;;;;;;;1.21;87.59;102213.47;5018072;28;20207;-77
2021/12/20 11:27:12;;;;;;;4.50;2.40;;;;;;;1.23;87.84;102227.28;5024830;28;20417;-78
2021/12/20 11:29:41;;;;;;;10.00;3.83;;;;;;;1.25;87.25;102225.69;5026501;28;20194;-78
2021/12/20 11:32:09;;;;;;;5.30;2.70;;;;;;;1.32;87.17;102230.28;5024959;28;20252;-78
2021/12/20 11:34:38;;;;;;;5.90;2.43;;;;;;;1.35;86.65;102250.16;5028383;28;20206;-78